Time;durP1;ratioP1;P1;durP2;ratioP2;P2;SDS_P1;SDS_P2;PMS_P1;PMS_P2;Temp;Humidity;BMP_temperature;BMP_pressure;BME280_temperature;BME280_humidity;BME280_pressure;Samples;Min_cycle;Max_cycle;Signal;HPM_P1;HPM_P2
2022/04/04 00:01:51;;;;;;;7.28;3.95;;;;;;;5.18;46.65;100876.94;5090177;28;20547;-74
2022/04/04 00:04:18;;;;;;;7.05;3.55;;;;;;;5.52;45.85;100868.88;5090189;28;20060;-74
2022/04/04 00:06:44;;;;;;;6.78;3.60;;;;;;;5.40;45.75;100876.06;5090508;28;20130;-74
2022/04/04 00:09:11;;;;;;;5.88;3.50;;;;;;;5.17;46.46;100874.38;5090688;28;20126;-74
2022/04/04 00:11:37;;;;;;;5.45;3.95;;;;;;;5.47;45.96;100868.44;5090708;28;20479;-74
2022/04/04 00:14:04;;;;;;;8.93;3.45;;;;;;;5.26;46.13;100868.34;5090446;28;20131;-74
2022/04/04 00:16:32;;;;;;;6.50;3.80;;;;;;;5.07;46.73;100870.75;5088260;28;20072;-74
2022/04/04 00:19:00;;;;;;;8.65;3.83;;;;;;;5.82;45.25;100870.88;5090133;28;20072;-74
2022/04/04 00:21:27;;;;;;;7.65;3.78;;;;;;;5.52;45.67;100874.22;5088810;28;20044;-74
2022/04/04 00:23:54;;;;;;;9.77;4.05;;;;;;;5.56;45.26;100867.69;5088975;28;20139;-74
2022/04/04 00:26:20;;;;;;;5.90;3.22;;;;;;;5.68;44.93;100864.03;5089582;28;20480;-74
2022/04/04 00:28:49;;;;;;;5.53;3.25;;;;;;;4.94;46.92;100868.22;5090004;28;20054;-74
2022/04/04 00:31:17;;;;;;;8.82;4.20;;;;;;;5.58;45.47;100857.75;5088156;28;20074;-74
2022/04/04 00:33:44;;;;;;;9.18;4.18;;;;;;;5.57;45.26;100861.38;5093822;28;20510;-74
2022/04/04 00:36:10;;;;;;;6.68;3.83;;;;;;;5.22;45.74;100854.44;5094235;28;20131;-74
2022/04/04 00:38:36;;;;;;;10.35;3.92;;;;;;;5.70;44.98;100856.75;5094129;28;20072;-74
2022/04/04 00:41:08;;;;;;;7.85;3.85;;;;;;;5.28;45.60;100850.41;5093938;28;20130;-74
2022/04/04 00:43:35;;;;;;;9.13;4.07;;;;;;;4.96;46.55;100850.31;5093776;28;21093;-74
2022/04/04 00:46:02;;;;;;;5.70;4.03;;;;;;;5.16;46.14;100849.59;5092944;28;20230;-74
2022/04/04 00:48:29;;;;;;;8.90;4.00;;;;;;;5.10;45.89;100857.22;5092217;28;20377;-74
2022/04/04 00:50:56;;;;;;;9.40;4.03;;;;;;;5.27;45.75;100849.56;5040764;28;20131;-74
2022/04/04 00:53:22;;;;;;;11.25;4.03;;;;;;;5.39;45.35;100849.59;5093880;28;20127;-74
2022/04/04 00:55:49;;;;;;;6.38;3.80;;;;;;;5.51;45.11;100857.41;5093247;28;20399;-74
2022/04/04 00:58:18;;;;;;;4.90;3.92;;;;;;;5.39;45.13;100847.75;5093741;28;20500;-74
2022/04/04 01:00:47;;;;;;;6.60;3.70;;;;;;;5.41;45.05;100850.28;5093599;28;20467;-74
2022/04/04 01:03:17;;;;;;;6.88;4.07;;;;;;;5.13;45.92;100851.66;5093171;28;20494;-74
2022/04/04 01:09:31;;;;;;;10.13;4.07;;;;;;;4.72;46.23;100837.13;5092645;28;20050;-74
2022/04/04 01:12:10;;;;;;;9.57;4.53;;;;;;;4.76;46.53;100835.91;5092693;28;20072;-74
2022/04/04 01:14:41;;;;;;;8.10;4.40;;;;;;;4.97;46.22;100836.91;5093393;28;20157;-74
2022/04/04 01:17:08;;;;;;;;;;;;;;;4.93;45.76;100834.59;5093725;28;20123;-74
2022/04/04 01:19:35;;;;;;;12.23;4.68;;;;;;;5.12;45.76;100834.00;5092326;28;20011;-74
2022/04/04 01:22:05;;;;;;;6.93;4.40;;;;;;;5.46;45.14;100825.00;5093185;28;20398;-74
2022/04/04 01:24:32;;;;;;;10.33;4.33;;;;;;;5.13;45.97;100823.25;5091256;28;20040;-74
2022/04/04 01:26:59;;;;;;;11.98;5.10;;;;;;;4.72;46.49;100821.19;5091797;28;20290;-74
2022/04/04 01:29:25;;;;;;;7.20;4.20;;;;;;;5.07;46.11;100822.88;5092722;28;20043;-74
2022/04/04 01:31:52;;;;;;;9.18;4.57;;;;;;;5.29;45.30;100815.72;5082810;28;20131;-74
2022/04/04 01:34:20;;;;;;;7.38;4.32;;;;;;;4.64;46.60;100821.78;5092218;28;20131;-74
2022/04/04 01:36:46;;;;;;;8.70;4.68;;;;;;;4.84;46.64;100819.41;5089596;28;20455;-74
2022/04/04 01:39:13;;;;;;;10.32;4.57;;;;;;;4.89;46.21;100815.41;5093341;28;20067;-74
2022/04/04 01:41:39;;;;;;;10.65;4.88;;;;;;;4.67;46.66;100812.75;5092164;28;20191;-74
2022/04/04 01:44:07;;;;;;;6.75;4.35;;;;;;;4.60;47.03;100806.22;5089446;28;20072;-74
2022/04/04 01:46:34;;;;;;;12.48;4.80;;;;;;;4.74;46.61;100813.97;5091890;28;20075;-74
2022/04/04 01:49:03;;;;;;;8.13;4.50;;;;;;;4.88;46.49;100805.72;5071581;28;20098;-74
2022/04/04 01:51:30;;;;;;;8.82;4.70;;;;;;;4.90;46.41;100810.91;5077053;28;20048;-72
2022/04/04 01:53:58;;;;;;;8.02;4.70;;;;;;;4.44;47.24;100796.75;5091907;28;20067;-74
2022/04/04 01:56:24;;;;;;;11.23;5.18;;;;;;;4.84;46.61;100803.44;5092202;28;20567;-74
2022/04/04 01:58:51;;;;;;;8.60;4.72;;;;;;;4.95;45.97;100795.47;5090600;28;20050;-74
2022/04/04 02:01:19;;;;;;;10.45;5.32;;;;;;;4.32;47.25;100797.69;5092842;28;20126;-73
2022/04/04 02:03:49;;;;;;;7.60;4.63;;;;;;;4.70;46.56;100797.41;5092727;28;20105;-74
2022/04/04 02:06:15;;;;;;;7.15;4.93;;;;;;;4.40;47.27;100794.47;5086687;28;20126;-74
2022/04/04 02:08:42;;;;;;;9.10;4.53;;;;;;;4.60;46.90;100795.59;5092081;28;20048;-74
2022/04/04 02:11:09;;;;;;;10.15;5.20;;;;;;;4.48;46.89;100787.59;5091996;28;20404;-74
2022/04/04 02:13:36;;;;;;;9.85;5.22;;;;;;;4.56;46.93;100782.53;5092267;28;20047;-74
2022/04/04 02:16:04;;;;;;;12.90;5.60;;;;;;;4.61;46.74;100789.31;5085616;28;20079;-73
2022/04/04 02:18:32;;;;;;;8.95;5.07;;;;;;;4.72;46.79;100787.47;5092006;28;20052;-73
2022/04/04 02:20:58;;;;;;;7.85;4.70;;;;;;;5.06;45.61;100776.84;5090240;28;20128;-74
2022/04/04 02:23:25;;;;;;;10.82;5.63;;;;;;;4.82;46.95;100785.78;5089628;28;20051;-74
2022/04/04 02:25:55;;;;;;;8.95;4.95;;;;;;;4.42;46.82;100769.50;5091073;28;20131;-74
2022/04/04 02:28:22;;;;;;;11.30;5.10;;;;;;;4.56;46.93;100769.25;5082989;28;20080;-73
2022/04/04 02:30:49;;;;;;;7.53;5.40;;;;;;;4.61;46.62;100752.94;5092402;28;20129;-74
2022/04/04 02:33:17;;;;;;;11.25;5.78;;;;;;;4.51;46.72;100757.28;5068458;28;20044;-74
2022/04/04 02:35:45;;;;;;;9.40;5.40;;;;;;;4.57;46.86;100762.13;5071843;28;20127;-73
2022/04/04 02:38:12;;;;;;;11.60;5.72;;;;;;;4.23;47.63;100750.59;5071504;28;20471;-72
2022/04/04 02:40:40;;;;;;;8.57;5.30;;;;;;;4.55;47.18;100743.63;5081756;28;20469;-73
2022/04/04 02:43:08;;;;;;;12.35;6.15;;;;;;;4.29;47.91;100740.34;5090877;28;20172;-73
2022/04/04 02:45:35;;;;;;;9.15;5.05;;;;;;;4.77;46.57;100734.81;5090587;28;20373;-74
2022/04/04 02:48:02;;;;;;;9.25;5.30;;;;;;;4.92;46.30;100731.91;5090367;28;20055;-74
2022/04/04 02:50:29;;;;;;;11.27;5.35;;;;;;;4.75;46.53;100731.44;5091351;28;20048;-73
2022/04/04 02:52:55;;;;;;;8.35;5.38;;;;;;;4.87;45.84;100737.59;5091232;28;20070;-75
2022/04/04 02:58:07;;;;;;;6.72;4.65;;;;;;;4.12;47.89;100727.53;5090968;28;20602;-73
2022/04/04 03:00:34;;;;;;;10.57;5.25;;;;;;;4.73;46.83;100729.88;5090019;28;20052;-74
2022/04/04 03:03:00;;;;;;;10.52;5.07;;;;;;;4.50;47.05;100727.22;5090260;28;20169;-74
2022/04/04 03:05:28;;;;;;;13.50;5.85;;;;;;;4.85;46.80;100714.75;5090992;28;20064;-74
2022/04/04 03:07:54;;;;;;;9.70;5.53;;;;;;;4.59;46.71;100728.31;5087795;28;20044;-74
2022/04/04 03:10:21;;;;;;;13.45;5.47;;;;;;;4.27;47.20;100723.66;5091093;28;20416;-74
2022/04/04 03:12:53;;;;;;;10.15;5.65;;;;;;;3.89;48.66;100720.47;5090701;28;20051;-74
2022/04/04 03:15:22;;;;;;;11.82;5.80;;;;;;;4.14;47.47;100724.72;5091291;28;20070;-74
2022/04/04 03:17:52;;;;;;;9.63;5.65;;;;;;;4.84;46.46;100713.06;5090663;28;20131;-74
2022/04/04 03:20:20;;;;;;;10.38;5.50;;;;;;;4.23;47.36;100719.56;5091548;28;20044;-74
2022/04/04 03:22:49;;;;;;;10.52;5.65;;;;;;;4.37;47.59;100715.84;5090262;28;20131;-74
2022/04/04 03:25:17;;;;;;;9.02;5.38;;;;;;;4.29;47.90;100707.63;5089355;28;20476;-74
2022/04/04 03:27:46;;;;;;;10.65;5.85;;;;;;;4.33;47.88;100709.91;5088865;28;20457;-74
2022/04/04 03:30:15;;;;;;;11.45;6.35;;;;;;;4.67;46.75;100696.66;5089914;28;20126;-74
2022/04/04 03:32:41;;;;;;;10.90;5.72;;;;;;;4.12;48.20;100703.63;5090584;28;20131;-74
2022/04/04 03:35:08;;;;;;;7.90;5.72;;;;;;;4.15;47.69;100699.91;5090247;28;20119;-74
2022/04/04 03:37:36;;;;;;;12.93;6.22;;;;;;;4.00;48.35;100693.94;5089671;28;20122;-73
2022/04/04 03:40:04;;;;;;;10.98;5.75;;;;;;;4.03;48.33;100696.38;5090651;28;20075;-74
2022/04/04 03:42:30;;;;;;;10.40;6.10;;;;;;;4.54;46.97;100691.47;5089857;28;20055;-74
2022/04/04 03:44:57;;;;;;;11.15;6.20;;;;;;;4.26;47.77;100697.25;5089713;28;20074;-73
2022/04/04 03:47:24;;;;;;;14.20;6.30;;;;;;;4.58;47.12;100692.06;5091004;28;20059;-73
2022/04/04 03:49:50;;;;;;;8.85;5.88;;;;;;;4.54;47.39;100688.81;5089008;28;20126;-74
2022/04/04 03:52:16;;;;;;;8.05;5.88;;;;;;;4.14;47.44;100680.47;5084761;28;20040;-74
2022/04/04 03:54:43;;;;;;;10.35;5.93;;;;;;;4.60;46.84;100690.16;5089547;28;20425;-74
2022/04/04 03:57:09;;;;;;;13.57;6.25;;;;;;;4.33;47.37;100678.03;5089458;28;20469;-74
2022/04/04 03:59:36;;;;;;;14.10;5.88;;;;;;;4.42;47.24;100668.56;5089052;28;20128;-73
2022/04/04 04:02:03;;;;;;;12.55;6.85;;;;;;;4.23;47.50;100681.53;5090300;28;20055;-73
2022/04/04 04:04:29;;;;;;;9.00;5.63;;;;;;;4.20;47.39;100674.66;5081457;28;20131;-74
2022/04/04 04:06:56;;;;;;;13.75;6.05;;;;;;;4.51;46.78;100664.31;5093878;28;20044;-74
2022/04/04 04:09:22;;;;;;;11.55;6.10;;;;;;;4.46;46.88;100662.03;5095054;28;20127;-73
2022/04/04 04:11:48;;;;;;;11.55;5.57;;;;;;;4.00;48.01;100656.78;5094899;28;20123;-73
2022/04/04 04:14:15;;;;;;;13.55;6.50;;;;;;;3.68;49.28;100649.50;5092125;28;20044;-73
2022/04/04 04:16:41;;;;;;;9.70;5.80;;;;;;;4.10;47.97;100652.44;5092818;28;20111;-74
2022/04/04 04:20:19;;;;;;;9.80;5.60;;;;;;;4.20;47.64;100645.44;5092894;28;20507;-73
2022/04/04 04:21:55;;;;;;;14.52;5.68;;;;;;;4.05;47.98;100646.66;5093747;28;20063;-74
2022/04/04 04:24:21;;;;;;;10.80;5.80;;;;;;;3.97;47.76;100641.13;5093862;28;20136;-74
2022/04/04 04:26:48;;;;;;;10.32;5.93;;;;;;;4.39;47.06;100636.06;5094625;28;20465;-73
2022/04/04 04:29:14;;;;;;;14.57;6.50;;;;;;;4.40;46.78;100632.44;5094151;28;20134;-74
2022/04/04 04:31:41;;;;;;;10.98;6.28;;;;;;;4.34;47.31;100637.22;5093505;28;20127;-73
2022/04/04 04:34:07;;;;;;;12.35;6.57;;;;;;;3.79;47.84;100644.22;5093567;28;20048;-74
2022/04/04 04:36:36;;;;;;;8.70;5.50;;;;;;;3.72;48.54;100635.03;5093834;28;20043;-74
2022/04/04 04:39:03;;;;;;;12.30;6.03;;;;;;;4.03;48.00;100638.81;5093962;28;20132;-74
2022/04/04 04:41:29;;;;;;;10.77;6.30;;;;;;;4.03;47.22;100627.34;5094371;28;20094;-74
2022/04/04 04:43:55;;;;;;;9.70;5.80;;;;;;;3.74;48.32;100625.16;5093033;28;20074;-73
2022/04/04 04:46:22;;;;;;;8.20;5.68;;;;;;;3.65;48.51;100627.66;5080790;28;20048;-73
2022/04/04 04:48:48;;;;;;;9.57;5.88;;;;;;;3.92;48.27;100625.53;5073213;28;20131;-74
2022/04/04 04:51:15;;;;;;;10.60;5.97;;;;;;;4.38;47.09;100621.09;5087144;28;20445;-73
2022/04/04 04:53:41;;;;;;;10.55;6.03;;;;;;;3.59;48.71;100615.75;5094308;28;20121;-72
2022/04/04 04:56:08;;;;;;;14.40;6.35;;;;;;;3.92;48.09;100609.59;5092895;28;20040;-73
2022/04/04 04:58:34;;;;;;;6.70;5.13;;;;;;;3.88;47.88;100608.16;5092826;28;20052;-73
2022/04/04 05:01:01;;;;;;;8.05;5.90;;;;;;;3.69;48.48;100608.75;5094228;28;20040;-72
2022/04/04 05:03:27;;;;;;;8.02;5.78;;;;;;;3.76;48.26;100606.44;5093071;28;20048;-72
2022/04/04 05:05:54;;;;;;;10.63;6.07;;;;;;;3.86;47.58;100612.72;5092670;28;20069;-73
2022/04/04 05:08:21;;;;;;;11.00;5.75;;;;;;;3.96;47.58;100610.22;5093248;28;20135;-74
2022/04/04 05:10:47;;;;;;;9.63;5.93;;;;;;;3.72;48.45;100602.34;5092351;28;20172;-74
2022/04/04 05:13:13;;;;;;;14.50;6.53;;;;;;;3.78;47.73;100597.41;5085159;28;20052;-74
2022/04/04 05:15:40;;;;;;;9.55;6.03;;;;;;;3.81;48.10;100599.00;5092470;28;20052;-74
2022/04/04 05:18:07;;;;;;;9.88;6.20;;;;;;;3.58;48.24;100595.44;5089705;28;20044;-74
2022/04/04 05:20:33;;;;;;;13.27;6.13;;;;;;;3.71;48.10;100598.00;5092441;28;20507;-74
2022/04/04 05:23:00;;;;;;;14.10;5.93;;;;;;;4.04;47.38;100590.06;5094064;28;20052;-74
2022/04/04 05:25:26;;;;;;;14.20;7.10;;;;;;;3.79;47.89;100583.19;5052197;28;20473;-73
2022/04/04 05:27:55;;;;;;;17.33;7.93;;;;;;;4.01;46.98;100578.84;5048761;28;20083;-74
2022/04/04 05:30:22;;;;;;;10.40;6.75;;;;;;;3.63;48.34;100577.41;5052819;28;20120;-74
2022/04/04 05:32:49;;;;;;;11.15;6.60;;;;;;;3.59;48.48;100582.09;5053398;28;20128;-73
2022/04/04 05:35:18;;;;;;;11.95;6.00;;;;;;;3.95;47.13;100582.00;5051570;28;20068;-72
2022/04/04 05:37:45;;;;;;;14.02;6.05;;;;;;;3.98;47.07;100573.78;5048887;28;20077;-73
2022/04/04 05:40:11;;;;;;;12.60;6.03;;;;;;;3.90;46.89;100576.19;5053884;28;20076;-73
2022/04/04 05:42:40;;;;;;;10.23;6.13;;;;;;;4.10;47.11;100570.16;5052390;28;20064;-71
2022/04/04 05:45:09;;;;;;;8.57;6.32;;;;;;;3.86;47.25;100575.56;5052992;28;20049;-71
2022/04/04 05:47:35;;;;;;;11.93;6.60;;;;;;;4.21;46.27;100567.50;5052543;28;20072;-73
2022/04/04 05:50:03;;;;;;;18.70;6.80;;;;;;;3.94;46.85;100559.91;5054053;28;20077;-72
2022/04/04 05:52:29;;;;;;;12.85;7.22;;;;;;;3.59;47.51;100570.63;5053741;28;20048;-73
2022/04/04 05:54:59;;;;;;;15.95;6.82;;;;;;;4.24;46.15;100563.72;5052599;28;20068;-72
2022/04/04 05:57:30;;;;;;;10.73;7.28;;;;;;;4.17;46.24;100560.72;5052826;28;20077;-72
2022/04/04 05:59:57;;;;;;;;;;;;;;;4.22;46.36;100561.22;5053519;28;20045;-73
2022/04/04 06:02:26;;;;;;;10.45;7.25;;;;;;;4.74;45.34;100553.50;5052899;28;19971;-73
2022/04/04 06:04:53;;;;;;;11.60;7.25;;;;;;;4.25;46.35;100555.66;5052694;28;20110;-72
2022/04/04 06:07:20;;;;;;;11.38;8.02;;;;;;;4.11;46.53;100547.97;5052873;28;20068;-72
2022/04/04 06:09:46;;;;;;;14.18;7.15;;;;;;;4.70;44.69;100544.94;5052949;28;20128;-73
2022/04/04 06:12:13;;;;;;;13.98;7.65;;;;;;;4.10;46.47;100540.94;5052501;28;20103;-73
2022/04/04 06:14:39;;;;;;;13.70;8.70;;;;;;;4.54;45.83;100540.03;5052344;28;20103;-73
2022/04/04 06:17:06;;;;;;;16.50;8.45;;;;;;;4.63;45.59;100527.81;5051561;28;20083;-73
2022/04/04 06:19:34;;;;;;;18.35;8.07;;;;;;;5.28;44.28;100526.78;5052044;28;20059;-73
2022/04/04 06:22:04;;;;;;;12.43;7.97;;;;;;;5.42;43.87;100527.38;5051373;28;20049;-73
2022/04/04 06:24:31;;;;;;;12.98;8.35;;;;;;;5.40;43.71;100521.38;5076967;28;20185;-73
2022/04/04 06:26:58;;;;;;;17.05;8.48;;;;;;;5.42;42.94;100516.75;5091106;28;20048;-73
2022/04/04 06:29:25;;;;;;;17.33;8.93;;;;;;;5.04;43.80;100519.06;5091054;28;20127;-72
2022/04/04 06:31:51;;;;;;;18.20;9.20;;;;;;;5.50;43.13;100520.44;5091546;28;20449;-74
2022/04/04 06:34:19;;;;;;;12.82;9.07;;;;;;;5.41;43.21;100502.59;5073662;28;20385;-75
2022/04/04 06:36:46;;;;;;;26.05;10.70;;;;;;;5.19;43.88;100506.28;5087443;28;20066;-75
2022/04/04 06:39:14;;;;;;;17.15;9.02;;;;;;;4.91;44.00;100496.28;5092005;28;20048;-75
2022/04/04 06:41:41;;;;;;;13.00;9.02;;;;;;;5.57;43.26;100495.97;5091348;28;20127;-75
2022/04/04 06:44:07;;;;;;;11.63;9.23;;;;;;;5.84;42.36;100498.03;5089576;28;20567;-73
2022/04/04 06:46:37;;;;;;;14.65;9.68;;;;;;;5.64;42.62;100482.00;5091404;28;20079;-73
2022/04/04 06:49:04;;;;;;;14.10;9.13;;;;;;;5.20;43.48;100481.34;5091444;28;20098;-73
2022/04/04 06:51:38;;;;;;;14.25;9.80;;;;;;;5.66;42.41;100490.66;5055753;27;20379;-72
2022/04/04 06:54:05;;;;;;;12.77;9.80;;;;;;;5.82;42.22;100482.19;5052868;28;20109;-72
2022/04/04 06:56:32;;;;;;;13.70;9.13;;;;;;;5.60;42.58;100485.06;5053300;28;20064;-72
2022/04/04 06:58:59;;;;;;;18.45;10.18;;;;;;;5.49;42.84;100478.84;5048642;28;20128;-72
2022/04/04 07:01:25;;;;;;;20.60;11.35;;;;;;;5.37;43.05;100469.25;5052435;28;20041;-72
2022/04/04 07:03:52;;;;;;;17.48;9.63;;;;;;;5.92;41.77;100466.25;5051642;28;20120;-72
2022/04/04 07:06:18;;;;;;;15.40;9.93;;;;;;;5.77;42.08;100463.13;5051135;28;20049;-73
2022/04/04 07:08:45;;;;;;;16.45;11.10;;;;;;;5.66;41.64;100464.06;5052032;28;20105;-73
2022/04/04 07:11:13;;;;;;;22.70;11.27;;;;;;;5.99;41.44;100454.06;5051288;28;20566;-71
2022/04/04 07:13:40;;;;;;;21.10;10.98;;;;;;;5.83;41.41;100456.41;5058422;28;20100;-73
2022/04/04 07:16:06;;;;;;;16.85;10.63;;;;;;;6.29;40.89;100452.31;5052774;28;20376;-73
2022/04/04 07:18:38;;;;;;;;;;;;;;;5.70;41.63;100444.19;5053042;28;20045;-73
2022/04/04 07:21:04;;;;;;;22.35;10.55;;;;;;;6.34;40.60;100439.44;5058311;28;19928;-72
2022/04/04 07:23:31;;;;;;;15.32;10.48;;;;;;;5.97;40.67;100438.22;5052813;28;20041;-72
2022/04/04 07:25:57;;;;;;;22.90;11.35;;;;;;;5.75;41.73;100433.97;5051805;28;20051;-72
2022/04/04 07:28:24;;;;;;;17.98;11.13;;;;;;;5.68;41.20;100424.00;5192274;22;20084;-74
2022/04/04 07:30:52;;;;;;;14.75;11.38;;;;;;;6.02;40.55;100429.84;5020278;28;20069;-73
2022/04/04 07:33:19;;;;;;;20.65;11.50;;;;;;;6.64;39.55;100425.97;5027686;28;20041;-73
2022/04/04 07:35:46;;;;;;;20.67;11.13;;;;;;;6.05;40.92;100424.25;5028113;28;20076;-73
2022/04/04 07:38:13;;;;;;;19.23;11.32;;;;;;;6.74;39.35;100412.63;5027105;28;20072;-74
2022/04/04 07:40:40;;;;;;;17.02;10.77;;;;;;;6.54;39.96;100406.47;5027584;28;20482;-73
2022/04/04 07:43:06;;;;;;;22.45;10.88;;;;;;;6.60;39.54;100405.91;5020517;28;20046;-74
2022/04/04 07:45:33;;;;;;;16.98;10.75;;;;;;;6.56;39.38;100399.16;5029198;28;20120;-73
2022/04/04 07:48:01;;;;;;;18.50;12.15;;;;;;;6.67;39.32;100398.19;5028044;28;20128;-74
2022/04/04 07:50:28;;;;;;;18.88;11.85;;;;;;;6.61;39.29;100383.59;5028498;28;20073;-74
2022/04/04 07:52:55;;;;;;;25.27;11.27;;;;;;;7.14;38.44;100383.00;5027563;28;20128;-72
2022/04/04 07:55:21;;;;;;;19.80;11.70;;;;;;;6.27;39.89;100385.03;5027463;28;20049;-74
2022/04/04 07:57:48;;;;;;;16.25;11.40;;;;;;;7.07;38.42;100381.91;5026561;28;20128;-73
2022/04/04 08:00:17;;;;;;;16.35;10.85;;;;;;;7.03;38.49;100371.69;5026715;28;20472;-73
2022/04/04 08:02:44;;;;;;;15.40;11.10;;;;;;;7.00;38.39;100372.00;5010953;28;20068;-73
2022/04/04 08:05:11;;;;;;;35.60;12.10;;;;;;;6.48;38.62;100367.06;5023682;28;20045;-73
2022/04/04 08:07:38;;;;;;;13.65;10.57;;;;;;;6.72;38.36;100358.59;5015344;28;20109;-74
2022/04/04 08:10:04;;;;;;;14.68;10.43;;;;;;;7.22;37.15;100355.59;5013805;28;20132;-75
2022/04/04 08:12:31;;;;;;;15.20;11.43;;;;;;;7.16;37.19;100346.38;5011466;28;20080;-75
2022/04/04 08:14:57;;;;;;;14.93;10.00;;;;;;;8.03;35.90;100344.19;5014234;28;20038;-75
2022/04/04 08:17:24;;;;;;;12.95;10.60;;;;;;;7.44;36.73;100346.38;5013463;28;20140;-75
2022/04/04 08:19:51;;;;;;;16.52;9.95;;;;;;;6.95;37.56;100337.75;5013487;28;20493;-74
2022/04/04 08:22:18;;;;;;;23.85;10.40;;;;;;;6.77;37.31;100326.16;5013262;28;20503;-75
2022/04/04 08:24:44;;;;;;;15.77;10.02;;;;;;;6.73;37.52;100324.78;5013166;28;20077;-75
2022/04/04 08:27:11;;;;;;;16.58;10.23;;;;;;;6.98;37.36;100332.13;5013220;28;20145;-75
2022/04/04 08:29:37;;;;;;;14.13;9.98;;;;;;;7.52;36.25;100313.59;5014186;28;20156;-75
2022/04/04 08:32:05;;;;;;;20.15;10.25;;;;;;;7.56;35.85;100309.63;5014698;28;20042;-75
2022/04/04 08:34:32;;;;;;;18.50;10.18;;;;;;;7.30;36.03;100310.34;5012289;28;20053;-75
2022/04/04 08:36:58;;;;;;;13.45;9.63;;;;;;;7.73;35.33;100305.31;5013032;28;20549;-75
2022/04/04 08:39:25;;;;;;;24.27;10.43;;;;;;;7.79;35.22;100299.34;5013057;28;20050;-75
2022/04/04 08:41:55;;;;;;;17.90;10.45;;;;;;;7.78;35.71;100285.16;5011605;28;20081;-74
2022/04/04 08:44:23;;;;;;;16.17;10.52;;;;;;;8.34;34.14;100275.97;5013052;28;20137;-74
2022/04/04 08:46:51;;;;;;;12.30;9.38;;;;;;;7.47;35.81;100281.19;5013019;28;20128;-74
2022/04/04 08:49:17;;;;;;;20.75;9.57;;;;;;;8.09;34.91;100277.63;5012817;28;20077;-74
2022/04/04 08:51:44;;;;;;;13.23;9.57;;;;;;;7.51;35.43;100269.22;5012949;28;20125;-74
2022/04/04 08:54:10;;;;;;;20.52;9.10;;;;;;;7.84;34.81;100281.06;5012783;28;20442;-74
2022/04/04 08:56:37;;;;;;;16.25;8.27;;;;;;;7.53;35.42;100268.06;5014492;28;20378;-74
2022/04/04 08:59:03;;;;;;;24.98;8.60;;;;;;;7.42;35.20;100246.94;5013693;28;20398;-75
2022/04/04 09:01:30;;;;;;;18.27;9.10;;;;;;;7.84;34.70;100241.00;5018014;28;21221;-75
2022/04/04 09:04:01;;;;;;;15.80;8.00;;;;;;;7.90;34.96;100232.38;5013193;28;20069;-75
2022/04/04 09:06:28;;;;;;;18.63;8.13;;;;;;;8.22;34.11;100226.44;5012999;28;20045;-75
2022/04/04 09:08:56;;;;;;;14.63;8.25;;;;;;;8.27;34.10;100223.31;5012491;28;20133;-75
2022/04/04 09:11:23;;;;;;;17.00;9.40;;;;;;;8.56;33.13;100222.97;5012604;28;20045;-75
2022/04/04 09:14:04;;;;;;;14.38;9.13;;;;;;;7.89;34.13;100204.00;5011697;28;20045;-75
2022/04/04 09:16:30;;;;;;;13.82;7.47;;;;;;;8.62;32.78;100206.28;5013217;28;20049;-75
2022/04/04 09:18:57;;;;;;;11.05;8.05;;;;;;;7.99;33.64;100196.72;5013304;28;20049;-74
2022/04/04 09:21:24;;;;;;;15.15;7.85;;;;;;;8.21;33.83;100194.53;5013120;28;20096;-74
2022/04/04 09:23:56;;;;;;;19.40;8.02;;;;;;;8.08;33.52;100197.63;5013100;28;20124;-74
2022/04/04 09:26:40;;;;;;;33.88;8.68;;;;;;;8.09;33.55;100188.63;5014191;28;20037;-74
2022/04/04 09:29:17;;;;;;;16.67;7.95;;;;;;;9.13;31.79;100180.38;5012030;28;20050;-74
2022/04/04 09:31:59;;;;;;;16.02;7.65;;;;;;;9.29;31.23;100167.03;5012072;28;20049;-74
2022/04/04 09:34:26;;;;;;;;;;;;;;;8.13;32.93;100169.44;5010207;28;20096;-74
2022/04/04 09:36:52;;;;;;;24.75;9.02;;;;;;;9.21;31.38;100150.13;5012654;28;19921;-75
2022/04/04 09:39:19;;;;;;;14.05;8.40;;;;;;;9.12;31.45;100148.41;5012942;28;20061;-75
2022/04/04 09:41:45;;;;;;;22.40;9.18;;;;;;;8.63;32.50;100132.25;5013256;28;20042;-75
2022/04/04 09:44:12;;;;;;;17.30;8.40;;;;;;;9.72;30.92;100124.06;5013564;28;20042;-75
2022/04/04 09:46:44;;;;;;;19.88;8.45;;;;;;;10.08;29.96;100131.69;5011684;28;20041;-75
2022/04/04 09:49:16;;;;;;;16.83;8.32;;;;;;;9.61;30.39;100110.97;5011846;28;20128;-75
2022/04/04 09:51:44;;;;;;;15.45;8.85;;;;;;;9.69;30.31;100106.47;5012452;28;20486;-75
2022/04/04 09:54:14;;;;;;;16.88;8.98;;;;;;;9.29;31.00;100102.78;5012391;28;20053;-75
2022/04/04 09:56:41;;;;;;;14.75;8.48;;;;;;;10.26;29.49;100086.72;5012296;28;20108;-74
2022/04/04 09:59:12;;;;;;;18.80;8.88;;;;;;;10.87;28.87;100079.72;5003941;28;20045;-74
2022/04/04 10:01:40;;;;;;;15.70;8.20;;;;;;;10.46;29.38;100068.38;4993482;28;20126;-75
2022/04/04 10:04:09;;;;;;;20.05;8.52;;;;;;;10.36;29.31;100063.22;4991668;28;20105;-75
2022/04/04 10:06:38;;;;;;;14.88;9.18;;;;;;;10.86;28.62;100064.66;4991714;28;20069;-75
2022/04/04 10:09:05;;;;;;;16.25;7.43;;;;;;;11.50;27.43;100056.22;4991731;28;20559;-75
2022/04/04 10:11:34;;;;;;;15.93;8.68;;;;;;;11.02;28.12;100046.75;4991731;28;20082;-75
2022/04/04 10:14:01;;;;;;;15.55;7.90;;;;;;;9.90;29.57;100036.25;4992834;28;20110;-75
2022/04/04 10:16:30;;;;;;;17.15;7.95;;;;;;;11.08;28.24;100035.28;4990326;28;20046;-75
2022/04/04 10:18:57;;;;;;;13.30;8.00;;;;;;;10.76;28.20;100026.47;4991979;28;20062;-75
2022/04/04 10:21:26;;;;;;;13.48;7.90;;;;;;;9.86;29.00;100024.22;4989715;28;20073;-75
2022/04/04 10:23:55;;;;;;;27.48;9.13;;;;;;;9.94;29.04;100026.03;4991828;28;20122;-74
2022/04/04 10:26:26;;;;;;;13.30;8.32;;;;;;;9.54;30.05;100011.75;4991234;28;20053;-75
2022/04/04 10:29:07;;;;;;;14.23;7.80;;;;;;;9.93;29.68;99998.41;4991865;28;20136;-75
2022/04/04 10:31:42;;;;;;;20.88;8.32;;;;;;;9.05;30.47;99999.22;4990924;28;20497;-75
2022/04/04 10:34:15;;;;;;;23.98;8.45;;;;;;;8.74;31.47;99980.34;4991015;28;20069;-75
2022/04/04 10:37:06;;;;;;;13.32;8.35;;;;;;;8.59;31.46;99990.84;4991217;28;20108;-74
2022/04/04 10:39:47;;;;;;;27.73;9.45;;;;;;;8.23;31.91;99984.13;4991496;28;20108;-75
2022/04/04 10:42:25;;;;;;;20.17;8.75;;;;;;;8.31;31.84;99973.44;4992816;28;20534;-74
2022/04/04 10:45:08;;;;;;;26.65;8.93;;;;;;;9.08;31.00;99948.06;4991289;28;20438;-75
2022/04/04 10:47:39;;;;;;;18.27;8.88;;;;;;;8.73;31.47;99951.09;4991478;28;20046;-75
2022/04/04 10:50:30;;;;;;;19.75;8.25;;;;;;;9.11;30.76;99930.00;4991418;28;20039;-75
2022/04/04 10:53:01;;;;;;;22.60;7.88;;;;;;;9.65;30.10;99935.59;4991260;28;20039;-75
2022/04/04 10:55:36;;;;;;;21.13;7.95;;;;;;;9.40;30.12;99919.56;4991067;28;20077;-74
2022/04/04 10:58:24;;;;;;;19.83;8.57;;;;;;;9.84;29.75;99924.44;4990385;28;20042;-75
2022/04/04 11:00:56;;;;;;;15.23;6.72;;;;;;;9.74;29.90;99907.75;4990128;28;20483;-75
2022/04/04 11:03:33;;;;;;;18.88;7.30;;;;;;;9.17;30.19;99905.25;4990846;28;20066;-75
2022/04/04 11:09:04;;;;;;;16.75;7.05;;;;;;;9.24;29.61;99885.69;4990975;28;20431;-75
2022/04/04 11:11:49;;;;;;;8.77;4.47;;;;;;;8.73;30.07;99892.28;4990921;28;20078;-75
2022/04/04 11:14:17;;;;;;;24.23;7.20;;;;;;;8.86;29.94;99873.88;4972560;28;20274;-75
2022/04/04 11:17:08;;;;;;;31.42;7.00;;;;;;;8.80;29.82;99888.75;4967992;28;20086;-74
2022/04/04 11:19:57;;;;;;;39.20;5.32;;;;;;;8.48;30.41;99860.19;4971557;28;20074;-75
2022/04/04 11:22:26;;;;;;;29.27;6.85;;;;;;;8.80;29.94;99850.47;4971317;28;20133;-75
2022/04/04 11:25:03;;;;;;;18.52;5.85;;;;;;;8.82;29.93;99867.19;4971533;28;20070;-75
2022/04/04 11:27:33;;;;;;;17.77;5.85;;;;;;;9.36;28.98;99847.81;4972171;28;20070;-75
2022/04/04 11:30:05;;;;;;;9.48;5.30;;;;;;;8.83;29.64;99844.78;4965661;28;20051;-75
2022/04/04 11:32:40;;;;;;;21.02;5.65;;;;;;;8.81;30.10;99844.09;4969428;28;20101;-75
2022/04/04 11:35:14;;;;;;;16.63;5.57;;;;;;;8.45;30.38;99836.47;4972009;28;20057;-75
2022/04/04 11:37:51;;;;;;;42.00;6.95;;;;;;;8.14;30.86;99831.78;4974233;28;20070;-75
2022/04/04 11:40:23;;;;;;;32.38;5.95;;;;;;;8.80;30.04;99813.03;4988533;28;20050;-75
2022/04/04 11:42:51;;;;;;;18.02;4.65;;;;;;;8.72;30.13;99808.53;4975543;28;20062;-75